หน้าหลัก
METAR-TAF:

METAR-TAF

ท่าอากาศยาน :

ท่าอากาศยานนานาชาติโออาร์ แทมโบ

โจฮันเนสเบิร์ก, แอฟริกาใต้

ละติจูด: 26-08S, ลองจิจูด: 028-14E, ความสูง: 1694 ม.

การสังเกตสภาพอากาศปัจจุบัน

รายงานได้ทำขึ้นเมื่อ 23 นาทีที่แล้ว ณ เวลา 03:30 UTC
ลม 6 นอตจากใต้/ตะวันตกเฉียงใต้
อุณหภูมิ 8°C
ความชื้น 53%
ความกดอากาศ 1030 hPa
ทัศนวิสัย 10 กม. หรือมากกว่า
ไม่มีเมฆต่ำกว่า 1,500 ม. และไม่มีเมฆคิวมูโลนิมบัส

METAR: FAOR 130330Z 21006KT CAVOK 08/M01 Q1030 NOSIG

เวลา: 05:53 (03:53 UTC)

การพยากรณ์

รายงานได้ทำขึ้นเมื่อ 33 นาทีที่แล้ว ณ เวลา 03:20 UTC
การพยากรณ์มีผลตั้งแต่วันที่ 13 ณ เวลา 00 UTC จนถึงวันที่ 14 ณ เวลา 06 UTC
ลม 3 นอตจากทิศทางซึ่งแปรผันได้
ทัศนวิสัย 10 กม. หรือมากกว่า
ไม่มีเมฆต่ำกว่า 1,500 ม. และไม่มีเมฆคิวมูโลนิมบัส
กำลังกลายเป็น
ตั้งแต่วันที่ 13 ณ เวลา 04 UTC จนถึงวันที่ 13 ณ เวลา 06 UTC
ลม 10 นอตจากใต้
กำลังกลายเป็น
ตั้งแต่วันที่ 13 ณ เวลา 14 UTC จนถึงวันที่ 13 ณ เวลา 16 UTC
ลม 3 นอตจากทิศทางซึ่งแปรผันได้

TAF: FAOR 130320Z 1300/1406 VRB03KT CAVOK TX19/1312Z TN05/1301Z BECMG 1304/1306 18010KT BECMG 1314/1316 VRB03KT

สังเกตการณ์สภาพอากาศและพยากรณ์อากาศของสนามบินมากกว่า 4000 แห่ง (รายงาน METAR และ TAF).

สถานีที่ดูได้จะแสดงไว้ด้วยจุดสีเหลืองและสีแดงบนแผนที่.

เลื่อนเมาส์ไปเหนือจุดเพื่อดูชื่อสถานี.

แล้วคลิกเพื่อดูสังเกตการณ์และการพยากรณ์สภาพอากาศ.

ในการเปลี่ยนแผนที่: คลิกที่ปุ่มสีเขียวที่มีกากบาทสีดำเพื่อซูมเข้า; ที่ปุ่มสีเขียวที่มีขีดเพื่อซูมออก; หรือที่ลูกศรสีเขียวเพื่อไปยังแผนที่ที่อยู่ติดกัน.


METAR-TAF: